createdAt,value
2018-12-12T00:01:07.311Z,125.20
2018-12-12T00:03:36.018Z,115.03
2018-12-12T00:06:04.855Z,123.10
2018-12-12T00:08:33.403Z,117.73
2018-12-12T00:11:02.243Z,122.70
2018-12-12T00:13:31.022Z,127.93
2018-12-12T00:15:59.552Z,127.13
2018-12-12T00:18:28.082Z,130.13
2018-12-12T00:20:56.616Z,126.57
2018-12-12T00:23:25.459Z,127.30
2018-12-12T00:25:54.136Z,122.73
2018-12-12T00:28:22.685Z,123.43
2018-12-12T00:30:51.405Z,124.47
2018-12-12T00:33:20.169Z,130.93
2018-12-12T00:35:49.354Z,117.53
2018-12-12T00:38:17.879Z,112.30
2018-12-12T00:40:46.385Z,111.63
2018-12-12T00:43:15.411Z,115.33
2018-12-12T00:45:43.997Z,110.10
2018-12-12T00:48:12.720Z,126.03
2018-12-12T00:50:41.324Z,111.97
2018-12-12T00:53:10.002Z,119.93
2018-12-12T00:55:38.592Z,133.00
2018-12-12T00:58:07.181Z,116.17
2018-12-12T01:00:35.956Z,120.47
2018-12-12T01:03:04.729Z,115.63
2018-12-12T01:05:34.541Z,117.37
2018-12-12T01:08:03.072Z,117.00
2018-12-12T01:10:32.459Z,135.40
2018-12-12T01:13:01.008Z,128.93
2018-12-12T01:15:29.711Z,112.73
2018-12-12T01:17:58.560Z,117.63
2018-12-12T01:20:28.372Z,112.40
2018-12-12T01:22:56.882Z,124.10
2018-12-12T01:25:25.632Z,103.73
2018-12-12T01:27:54.216Z,122.03
2018-12-12T01:30:22.943Z,123.60
2018-12-12T01:32:51.476Z,132.37
2018-12-12T01:35:23.547Z,133.17
2018-12-12T01:38:08.492Z,102.87
2018-12-12T01:40:37.752Z,137.07
2018-12-12T01:43:06.260Z,125.93
2018-12-12T01:45:34.782Z,109.70
2018-12-12T01:48:03.318Z,121.23
2018-12-12T01:50:32.088Z,135.77
2018-12-12T01:53:00.590Z,129.13
2018-12-12T01:55:29.183Z,98.83
2018-12-12T01:57:57.702Z,115.17
2018-12-12T02:00:26.281Z,107.13
2018-12-12T02:02:54.924Z,155.33
2018-12-12T02:05:23.558Z,103.37
2018-12-12T02:07:52.396Z,106.57
2018-12-12T02:10:20.925Z,138.67
2018-12-12T02:13:00.913Z,168.63
2018-12-12T02:15:29.821Z,183.77
2018-12-12T02:17:58.440Z,98.37
2018-12-12T02:20:27.047Z,101.80
2018-12-12T02:22:56.067Z,102.10
2018-12-12T02:25:24.592Z,94.80
2018-12-12T02:27:53.833Z,129.97
2018-12-12T02:30:22.370Z,95.20
2018-12-12T02:32:51.292Z,130.07
2018-12-12T02:35:19.821Z,104.07
2018-12-12T02:37:48.482Z,101.67
2018-12-12T02:40:17.171Z,102.07
2018-12-12T02:42:46.062Z,143.57
2018-12-12T02:45:14.635Z,108.87
2018-12-12T02:47:43.244Z,142.20
2018-12-12T02:50:11.860Z,110.80
2018-12-12T02:52:40.351Z,122.63
2018-12-12T02:55:08.896Z,94.07
2018-12-12T02:57:37.433Z,109.87
2018-12-12T03:00:08.288Z,109.27
2018-12-12T03:02:37.698Z,97.90
2018-12-12T03:05:06.606Z,92.07
2018-12-12T03:07:35.204Z,87.83
2018-12-12T03:10:03.921Z,76.90
2018-12-12T03:12:32.477Z,88.43
2018-12-12T03:15:01.001Z,64.13
2018-12-12T03:17:29.656Z,90.73
2018-12-12T03:19:58.204Z,55.03
2018-12-12T03:22:26.970Z,58.60
2018-12-12T03:24:55.532Z,55.20
2018-12-12T03:27:24.238Z,47.93
2018-12-12T03:29:52.731Z,44.10
2018-12-12T03:32:21.308Z,64.83
2018-12-12T03:34:49.829Z,133.70
2018-12-12T03:37:18.574Z,123.50
2018-12-12T03:39:47.103Z,142.00
2018-12-12T03:42:15.639Z,143.83
2018-12-12T03:44:44.137Z,158.13
2018-12-12T03:47:12.641Z,127.30
2018-12-12T03:49:41.127Z,147.63
2018-12-12T03:52:09.650Z,127.80
2018-12-12T03:54:38.233Z,128.30
2018-12-12T03:57:06.809Z,135.03
2018-12-12T03:59:35.646Z,128.07
2018-12-12T04:02:04.229Z,130.77
2018-12-12T04:04:32.778Z,121.53
2018-12-12T04:07:01.570Z,127.73
2018-12-12T04:09:30.091Z,122.83
2018-12-12T04:11:58.662Z,117.00
2018-12-12T04:14:27.766Z,101.87
2018-12-12T04:16:56.334Z,87.33
2018-12-12T04:19:25.045Z,90.17
2018-12-12T04:21:53.890Z,91.27
2018-12-12T04:24:24.497Z,103.33
2018-12-12T04:26:53.003Z,90.23
2018-12-12T04:29:21.898Z,90.17
2018-12-12T04:31:50.413Z,90.27
2018-12-12T04:34:18.916Z,91.67
2018-12-12T04:36:47.494Z,95.77
2018-12-12T04:39:16.123Z,168.67
2018-12-12T04:41:44.643Z,87.47
2018-12-12T04:44:13.157Z,89.80
2018-12-12T04:46:41.703Z,100.10
2018-12-12T04:49:10.383Z,191.73
2018-12-12T04:51:39.112Z,95.90
2018-12-12T04:54:07.604Z,95.47
2018-12-12T04:56:36.132Z,106.30
2018-12-12T04:59:05.258Z,145.50
2018-12-12T05:01:34.056Z,111.17
2018-12-12T05:04:02.609Z,115.70
2018-12-12T05:06:31.172Z,85.67
2018-12-12T05:08:59.713Z,82.97
2018-12-12T05:11:28.292Z,83.83
2018-12-12T05:13:56.831Z,75.30
2018-12-12T05:16:25.807Z,82.57
2018-12-12T05:18:54.307Z,79.70
2018-12-12T05:21:22.882Z,76.70
2018-12-12T05:23:51.611Z,73.97
2018-12-12T05:26:20.435Z,109.40
2018-12-12T05:28:48.977Z,73.40
2018-12-12T05:31:17.509Z,75.20
2018-12-12T05:33:46.046Z,89.57
2018-12-12T05:36:14.566Z,80.03
2018-12-12T05:38:43.139Z,91.37
2018-12-12T05:41:11.692Z,66.77
2018-12-12T05:43:40.298Z,76.67
2018-12-12T05:46:08.780Z,138.97
2018-12-12T05:48:37.318Z,75.27
2018-12-12T05:51:05.799Z,85.90
2018-12-12T05:53:34.285Z,81.20
2018-12-12T05:56:02.798Z,80.23
2018-12-12T05:58:31.364Z,92.20
2018-12-12T06:00:59.951Z,84.07
2018-12-12T06:03:28.439Z,82.03
2018-12-12T06:05:56.915Z,94.47
2018-12-12T06:08:25.426Z,93.47
2018-12-12T06:10:54.220Z,78.60
2018-12-12T06:13:22.744Z,84.33
2018-12-12T06:15:51.270Z,67.27
2018-12-12T06:18:19.795Z,66.70
2018-12-12T06:20:48.365Z,76.83
2018-12-12T06:23:17.132Z,74.50
2018-12-12T06:25:46.145Z,74.70
2018-12-12T06:28:14.662Z,72.83
2018-12-12T06:30:43.138Z,71.13
2018-12-12T06:33:11.648Z,75.50
2018-12-12T06:35:40.197Z,69.93
2018-12-12T06:38:08.852Z,67.33
2018-12-12T06:40:37.385Z,66.40
2018-12-12T06:43:05.849Z,63.07
2018-12-12T06:45:34.435Z,67.03
2018-12-12T06:48:03.025Z,74.93
2018-12-12T06:50:31.639Z,80.00
2018-12-12T06:53:00.242Z,70.60
2018-12-12T06:55:28.768Z,68.47
2018-12-12T06:57:57.305Z,77.63
2018-12-12T07:00:25.795Z,74.70
2018-12-12T07:02:54.229Z,79.80
2018-12-12T07:05:22.773Z,87.47
2018-12-12T07:07:51.228Z,87.37
2018-12-12T07:10:19.671Z,87.93
2018-12-12T07:12:48.295Z,82.33
2018-12-12T07:15:16.814Z,83.57
2018-12-12T07:17:45.305Z,76.83
2018-12-12T07:20:13.835Z,75.10
2018-12-12T07:22:43.145Z,76.43
2018-12-12T07:25:12.025Z,78.53
2018-12-12T07:27:40.573Z,80.87
2018-12-12T07:30:09.471Z,74.37
2018-12-12T07:32:37.960Z,75.63
2018-12-12T07:35:06.556Z,78.53
2018-12-12T07:37:35.067Z,79.17
2018-12-12T07:40:03.728Z,79.13
2018-12-12T07:42:32.232Z,78.53
2018-12-12T07:45:00.675Z,82.53
2018-12-12T07:47:29.161Z,114.83
2018-12-12T07:49:57.678Z,154.27
2018-12-12T07:52:26.220Z,140.87
2018-12-12T07:54:54.741Z,137.00
2018-12-12T07:57:23.896Z,133.03
2018-12-12T07:59:52.381Z,132.33
2018-12-12T08:02:22.323Z,127.20
2018-12-12T08:04:50.994Z,98.00
2018-12-12T08:07:19.505Z,124.07
2018-12-12T08:09:48.161Z,127.13
2018-12-12T08:12:17.493Z,102.60
2018-12-12T08:14:46.252Z,85.30
2018-12-12T08:17:14.731Z,78.50
2018-12-12T08:19:43.174Z,92.97
2018-12-12T08:22:11.671Z,81.93
2018-12-12T08:24:40.141Z,75.27
2018-12-12T08:27:08.638Z,73.43
2018-12-12T08:29:37.300Z,80.77
2018-12-12T08:32:05.828Z,75.77
2018-12-12T08:34:34.372Z,96.00
2018-12-12T08:37:02.856Z,81.73
2018-12-12T08:39:31.319Z,113.87
2018-12-12T08:41:59.895Z,98.93
2018-12-12T08:44:28.365Z,92.27
2018-12-12T08:46:56.866Z,66.83
2018-12-12T08:49:26.264Z,58.03
2018-12-12T08:51:55.002Z,78.63
2018-12-12T08:54:23.554Z,69.07
2018-12-12T08:56:52.984Z,69.27
2018-12-12T08:59:21.473Z,88.47
2018-12-12T09:01:50.015Z,79.60
2018-12-12T09:04:18.545Z,76.67
2018-12-12T09:06:47.016Z,69.83
2018-12-12T09:09:15.486Z,68.77
2018-12-12T09:11:44.030Z,67.57
2018-12-12T09:14:12.492Z,64.13
2018-12-12T09:16:41.301Z,65.67
2018-12-12T09:19:09.905Z,92.80
2018-12-12T09:21:38.459Z,87.83
2018-12-12T09:24:06.979Z,91.10
2018-12-12T09:26:35.470Z,82.13
2018-12-12T09:29:04.005Z,77.73
2018-12-12T09:31:33.039Z,80.17
2018-12-12T09:34:01.542Z,73.17
2018-12-12T09:36:29.998Z,72.27
2018-12-12T09:38:58.439Z,73.07
2018-12-12T09:41:27.080Z,69.90
2018-12-12T09:43:55.552Z,72.30
2018-12-12T09:46:24.385Z,71.63
2018-12-12T09:48:53.133Z,66.87
2018-12-12T09:51:21.640Z,59.43
2018-12-12T09:53:50.245Z,63.97
2018-12-12T09:56:18.692Z,66.23
2018-12-12T09:58:47.152Z,65.93
2018-12-12T10:01:15.747Z,69.37
2018-12-12T10:03:44.219Z,75.97
2018-12-12T10:06:12.744Z,86.07
2018-12-12T10:08:41.231Z,88.87
2018-12-12T10:11:09.724Z,90.37
2018-12-12T10:13:38.267Z,71.57
2018-12-12T10:16:06.793Z,62.10
2018-12-12T10:18:35.477Z,56.20
2018-12-12T10:21:03.961Z,63.30
2018-12-12T10:23:32.454Z,61.23
2018-12-12T10:26:00.966Z,62.83
2018-12-12T10:28:29.497Z,64.47
2018-12-12T10:30:58.034Z,61.37
2018-12-12T10:33:26.513Z,67.37
2018-12-12T10:35:54.971Z,62.50
2018-12-12T10:38:23.432Z,70.93
2018-12-12T10:40:51.931Z,64.73
2018-12-12T10:43:20.410Z,53.17
2018-12-12T10:45:48.936Z,51.43
2018-12-12T10:48:17.411Z,51.30
2018-12-12T10:50:45.998Z,52.00
2018-12-12T10:53:14.664Z,57.90
2018-12-12T10:55:43.179Z,57.70
2018-12-12T10:58:11.635Z,54.60
2018-12-12T11:00:42.377Z,45.93
2018-12-12T11:03:16.423Z,53.37
2018-12-12T11:05:44.885Z,52.80
2018-12-12T11:08:13.736Z,53.70
2018-12-12T11:10:42.624Z,54.17
2018-12-12T11:13:11.126Z,52.17
2018-12-12T11:15:40.115Z,52.63
2018-12-12T11:18:08.607Z,52.03
2018-12-12T11:20:37.070Z,52.17
2018-12-12T11:23:05.635Z,53.10
2018-12-12T11:25:34.436Z,44.73
2018-12-12T11:28:03.119Z,52.67
2018-12-12T11:30:32.009Z,50.00
2018-12-12T11:33:00.493Z,46.33
2018-12-12T11:35:28.980Z,46.87
2018-12-12T11:37:57.660Z,44.73
2018-12-12T11:40:26.167Z,52.77
2018-12-12T11:42:54.871Z,55.33
2018-12-12T11:45:23.617Z,59.27
2018-12-12T11:47:52.268Z,56.57
2018-12-12T11:50:21.100Z,53.87
2018-12-12T11:52:49.556Z,49.37
2018-12-12T11:55:18.044Z,50.60
2018-12-12T11:57:46.836Z,51.27
2018-12-12T12:00:15.435Z,56.97
2018-12-12T12:02:43.939Z,75.97
2018-12-12T12:05:12.437Z,76.63
2018-12-12T12:07:40.979Z,72.10
2018-12-12T12:10:10.917Z,61.90
2018-12-12T12:12:39.466Z,52.17
2018-12-12T12:15:08.883Z,58.00
2018-12-12T12:17:37.518Z,64.77
2018-12-12T12:20:06.837Z,68.27
2018-12-12T12:22:35.327Z,85.70
2018-12-12T12:25:04.430Z,85.47
2018-12-12T12:27:32.935Z,72.00
2018-12-12T12:30:01.411Z,72.10
2018-12-12T12:32:29.906Z,105.40
2018-12-12T12:34:58.498Z,90.77
2018-12-12T12:37:27.005Z,71.67
2018-12-12T12:39:55.479Z,71.73
2018-12-12T12:42:23.945Z,145.40
2018-12-12T12:44:52.417Z,200.60
2018-12-12T12:47:21.017Z,117.10
2018-12-12T12:49:49.500Z,81.97
2018-12-12T12:52:17.999Z,50.63
2018-12-12T12:54:46.535Z,57.70
2018-12-12T12:57:15.174Z,60.30
2018-12-12T12:59:43.902Z,66.93
2018-12-12T13:02:12.498Z,75.27
2018-12-12T13:04:41.053Z,55.97
2018-12-12T13:07:09.676Z,53.17
2018-12-12T13:09:38.923Z,72.63
2018-12-12T13:12:07.720Z,78.23
2018-12-12T13:14:36.500Z,72.93
2018-12-12T13:17:05.285Z,76.70
2018-12-12T13:19:33.807Z,67.87
2018-12-12T13:22:02.342Z,68.73
2018-12-12T13:24:30.878Z,67.03
2018-12-12T13:26:59.452Z,60.27
2018-12-12T13:29:27.909Z,51.30
2018-12-12T13:31:56.426Z,56.60
2018-12-12T13:34:24.893Z,46.30
2018-12-12T13:36:53.396Z,52.97
2018-12-12T13:39:22.131Z,51.00
2018-12-12T13:41:50.652Z,52.87
2018-12-12T13:44:19.403Z,59.57
2018-12-12T13:46:47.908Z,56.47
2018-12-12T13:49:16.410Z,55.10
2018-12-12T13:51:45.152Z,54.93
2018-12-12T13:54:13.703Z,48.57
2018-12-12T13:56:42.194Z,45.80
2018-12-12T13:59:10.716Z,48.77
2018-12-12T14:01:39.559Z,50.43
2018-12-12T14:04:08.072Z,48.27
2018-12-12T14:06:36.586Z,45.37
2018-12-12T14:09:06.962Z,49.30
2018-12-12T14:11:35.660Z,51.20
2018-12-12T14:14:04.290Z,53.97
2018-12-12T14:16:32.763Z,54.27
2018-12-12T14:19:01.287Z,49.80
2018-12-12T14:21:30.015Z,55.07
2018-12-12T14:23:58.513Z,55.23
2018-12-12T14:26:27.364Z,56.37
2018-12-12T14:28:55.987Z,55.07
2018-12-12T14:31:24.656Z,56.63
2018-12-12T14:33:53.221Z,56.80
2018-12-12T14:36:21.667Z,61.10
2018-12-12T14:38:50.182Z,57.27
2018-12-12T14:41:18.715Z,54.60
2018-12-12T14:43:47.348Z,59.77
2018-12-12T14:46:17.350Z,65.50
2018-12-12T14:48:45.922Z,66.33
2018-12-12T14:51:14.386Z,62.87
2018-12-12T14:53:43.113Z,71.57
2018-12-12T14:56:11.569Z,84.03
2018-12-12T14:58:40.069Z,80.23
2018-12-12T15:01:08.552Z,78.77
2018-12-12T15:03:37.081Z,69.90
2018-12-12T15:06:05.584Z,74.00
2018-12-12T15:08:34.095Z,151.97
2018-12-12T15:11:02.659Z,129.40
2018-12-12T15:13:31.132Z,121.40
2018-12-12T15:15:59.624Z,99.57
2018-12-12T15:18:28.119Z,81.33
2018-12-12T15:20:56.570Z,88.73
2018-12-12T15:23:25.042Z,93.20
2018-12-12T15:25:53.514Z,86.60
2018-12-12T15:28:21.965Z,88.53
2018-12-12T15:30:50.681Z,81.27
2018-12-12T15:33:19.434Z,83.90
2018-12-12T15:35:47.918Z,88.20
2018-12-12T15:38:16.520Z,90.30
2018-12-12T15:40:44.954Z,85.47
2018-12-12T15:43:13.395Z,84.93
2018-12-12T15:45:41.858Z,89.87
2018-12-12T15:48:10.617Z,84.87
2018-12-12T15:50:39.130Z,85.33
2018-12-12T15:53:08.177Z,87.33
2018-12-12T15:55:36.894Z,75.30
2018-12-12T15:58:05.489Z,73.10
2018-12-12T16:00:34.129Z,71.40
2018-12-12T16:03:02.758Z,72.93
2018-12-12T16:05:31.218Z,77.17
2018-12-12T16:07:59.760Z,168.53
2018-12-12T16:10:28.483Z,69.60
2018-12-12T16:12:57.065Z,74.23
2018-12-12T16:15:25.563Z,79.10
2018-12-12T16:17:54.036Z,73.90
2018-12-12T16:20:22.516Z,75.10
2018-12-12T16:22:51.192Z,77.50
2018-12-12T16:25:19.754Z,90.03
2018-12-12T16:27:48.208Z,128.13
2018-12-12T16:30:16.839Z,87.90
2018-12-12T16:32:45.306Z,82.10
2018-12-12T16:35:13.924Z,78.60
2018-12-12T16:37:42.393Z,79.97
2018-12-12T16:40:11.035Z,81.33
2018-12-12T16:42:39.754Z,78.47
2018-12-12T16:45:08.747Z,78.23
2018-12-12T16:47:37.228Z,71.80
2018-12-12T16:50:07.023Z,76.90
2018-12-12T16:52:35.659Z,75.33
2018-12-12T16:55:04.719Z,75.10
2018-12-12T16:57:33.185Z,76.23
2018-12-12T17:00:01.682Z,74.87
2018-12-12T17:02:30.174Z,77.07
2018-12-12T17:05:02.263Z,74.60
2018-12-12T17:07:29.251Z,67.73
2018-12-12T17:09:58.060Z,70.30
2018-12-12T17:12:26.547Z,70.87
2018-12-12T17:14:55.074Z,70.50
2018-12-12T17:17:23.554Z,72.20
2018-12-12T17:19:52.107Z,71.90
2018-12-12T17:22:20.602Z,82.23
2018-12-12T17:24:49.027Z,77.07
2018-12-12T17:27:17.595Z,83.00
2018-12-12T17:29:46.093Z,92.03
2018-12-12T17:32:14.615Z,94.63
2018-12-12T17:34:43.099Z,95.43
2018-12-12T17:37:11.605Z,91.37
2018-12-12T17:39:40.099Z,91.87
2018-12-12T17:42:08.575Z,100.57
2018-12-12T17:44:37.020Z,93.77
2018-12-12T17:47:06.134Z,98.67
2018-12-12T17:49:34.607Z,111.13
2018-12-12T17:52:03.348Z,115.93
2018-12-12T17:54:32.005Z,120.43
2018-12-12T17:57:00.504Z,116.97
2018-12-12T17:59:28.996Z,134.67
2018-12-12T18:01:57.612Z,134.77
2018-12-12T18:04:26.208Z,143.03
2018-12-12T18:06:54.667Z,135.60
2018-12-12T18:09:23.123Z,149.83
2018-12-12T18:11:51.595Z,146.37
2018-12-12T18:14:21.020Z,150.57
2018-12-12T18:16:49.527Z,136.27
2018-12-12T18:19:18.044Z,140.10
2018-12-12T18:21:46.563Z,168.40
2018-12-12T18:24:15.032Z,159.70
2018-12-12T18:26:43.500Z,174.20
2018-12-12T18:29:12.351Z,183.50
2018-12-12T18:31:41.106Z,194.57
2018-12-12T18:34:09.876Z,176.33
2018-12-12T18:36:38.385Z,174.07
2018-12-12T18:39:08.199Z,186.53
2018-12-12T18:41:36.693Z,162.43
2018-12-12T18:44:05.251Z,159.53
2018-12-12T18:46:33.961Z,143.00
2018-12-12T18:49:02.453Z,140.57
2018-12-12T18:51:31.131Z,143.23
2018-12-12T18:53:59.665Z,148.10
2018-12-12T18:56:28.110Z,152.77
2018-12-12T18:58:56.607Z,154.37
2018-12-12T19:01:25.149Z,138.50
2018-12-12T19:03:54.085Z,125.43
2018-12-12T19:06:22.655Z,94.70
2018-12-12T19:08:51.329Z,105.50
2018-12-12T19:11:19.838Z,89.83
2018-12-12T19:13:48.364Z,67.10
2018-12-12T19:16:17.144Z,64.50
2018-12-12T19:18:45.691Z,67.67
2018-12-12T19:21:14.244Z,64.40
2018-12-12T19:23:43.304Z,52.93
2018-12-12T19:26:11.758Z,50.50
2018-12-12T19:28:40.255Z,63.50
2018-12-12T19:31:08.989Z,68.13
2018-12-12T19:33:37.582Z,68.03
2018-12-12T19:36:06.116Z,69.57
2018-12-12T19:38:34.754Z,71.07
2018-12-12T19:41:03.231Z,75.33
2018-12-12T19:43:32.890Z,84.10
2018-12-12T19:46:01.804Z,81.47
2018-12-12T19:48:30.306Z,80.40
2018-12-12T19:50:59.048Z,96.47
2018-12-12T19:53:28.896Z,157.37
2018-12-12T19:55:57.703Z,150.40
2018-12-12T19:58:26.376Z,106.37
2018-12-12T20:00:55.637Z,87.03
2018-12-12T20:03:25.012Z,56.50
2018-12-12T20:05:53.675Z,47.57
2018-12-12T20:08:22.163Z,49.70
2018-12-12T20:10:50.928Z,56.57
2018-12-12T20:13:19.778Z,59.30
2018-12-12T20:15:48.669Z,68.07
2018-12-12T20:18:17.570Z,60.10
2018-12-12T20:20:47.780Z,60.77
2018-12-12T20:23:16.317Z,51.17
2018-12-12T20:25:44.868Z,55.93
2018-12-12T20:28:13.746Z,60.37
2018-12-12T20:30:42.524Z,49.70
2018-12-12T20:33:11.228Z,54.70
2018-12-12T20:35:39.816Z,60.60
2018-12-12T20:38:12.621Z,52.03
2018-12-12T20:40:41.470Z,56.80
2018-12-12T20:43:09.995Z,51.40
2018-12-12T20:45:38.547Z,53.73
2018-12-12T20:48:07.445Z,50.93
2018-12-12T20:50:36.060Z,54.77
2018-12-12T20:53:04.792Z,54.30
2018-12-12T20:55:33.582Z,53.53
2018-12-12T20:58:02.118Z,52.80
2018-12-12T21:00:30.650Z,51.07
2018-12-12T21:02:59.192Z,51.07
2018-12-12T21:05:27.716Z,55.60
2018-12-12T21:07:56.268Z,46.77
2018-12-12T21:10:24.930Z,39.27
2018-12-12T21:12:53.454Z,40.50
2018-12-12T21:15:22.248Z,35.90
2018-12-12T21:17:50.807Z,41.40
2018-12-12T21:20:19.401Z,38.00
2018-12-12T21:22:48.149Z,44.57
2018-12-12T21:25:16.886Z,43.63
2018-12-12T21:27:45.624Z,46.13
2018-12-12T21:30:17.203Z,45.67
2018-12-12T21:32:44.903Z,46.23
2018-12-12T21:35:13.634Z,45.87
2018-12-12T21:37:49.483Z,44.93
2018-12-12T21:40:18.014Z,43.87
2018-12-12T21:42:46.667Z,47.20
2018-12-12T21:45:15.595Z,39.77
2018-12-12T21:47:44.092Z,42.93
2018-12-12T21:50:12.663Z,46.07
2018-12-12T21:52:41.416Z,45.40
2018-12-12T21:55:09.996Z,47.00
2018-12-12T21:57:38.915Z,53.73
2018-12-12T22:00:09.618Z,55.17
2018-12-12T22:02:38.334Z,50.70
2018-12-12T22:05:08.137Z,48.30
2018-12-12T22:07:36.975Z,46.03
2018-12-12T22:10:06.599Z,50.07
2018-12-12T22:12:35.333Z,47.43
2018-12-12T22:15:05.154Z,48.47
2018-12-12T22:17:34.039Z,48.33
2018-12-12T22:20:02.940Z,48.77
2018-12-12T22:22:31.557Z,51.73
2018-12-12T22:25:00.285Z,59.80
2018-12-12T22:27:29.701Z,59.87
2018-12-12T22:29:59.381Z,60.03
2018-12-12T22:32:35.888Z,58.90
2018-12-12T22:35:06.203Z,57.37
2018-12-12T22:37:35.984Z,47.37
2018-12-12T22:40:05.965Z,45.47
2018-12-12T22:42:35.529Z,51.10
2018-12-12T22:45:09.860Z,47.17
2018-12-12T22:47:39.114Z,47.47
2018-12-12T22:50:10.459Z,45.90
2018-12-12T22:52:40.007Z,48.03
2018-12-12T22:55:10.328Z,47.10
2018-12-12T22:57:41.063Z,49.23
2018-12-12T23:00:14.882Z,49.93
2018-12-12T23:06:20.420Z,50.17
2018-12-12T23:08:46.653Z,48.17
2018-12-12T23:11:15.844Z,46.07
2018-12-12T23:13:44.981Z,44.80
2018-12-12T23:16:13.927Z,50.90
2018-12-12T23:18:42.764Z,49.30
2018-12-12T23:21:11.358Z,51.80
2018-12-12T23:23:40.570Z,55.50
2018-12-12T23:26:09.343Z,55.77
2018-12-12T23:28:37.914Z,58.83
2018-12-12T23:31:06.626Z,56.63
2018-12-12T23:33:35.306Z,55.93
2018-12-12T23:36:03.999Z,59.47
2018-12-12T23:38:32.686Z,55.93
2018-12-12T23:41:01.603Z,57.30
2018-12-12T23:43:30.391Z,59.30
2018-12-12T23:45:58.929Z,54.80
2018-12-12T23:48:27.453Z,55.60
2018-12-12T23:50:55.961Z,56.57
2018-12-12T23:53:24.577Z,54.10
2018-12-12T23:55:53.233Z,57.03
2018-12-12T23:58:21.993Z,54.87
